Time;durP1;ratioP1;P1;durP2;ratioP2;P2;SDS_P1;SDS_P2;PMS_P1;PMS_P2;Temp;Humidity;BMP_temperature;BMP_pressure;BME280_temperature;BME280_humidity;BME280_pressure;Samples;Min_cycle;Max_cycle;Signal;HPM_P1;HPM_P2
2023/08/02 00:00:08;;;;;;;;;;;24.80;62.00;;;;;;5156938;27;20526;-34
2023/08/02 00:02:34;;;;;;;;;;;24.80;62.40;;;;;;5153569;27;19911;-34
2023/08/02 00:05:00;;;;;;;;;;;24.80;62.60;;;;;;5153151;27;19915;-34
2023/08/02 00:07:26;;;;;;;;;;;24.80;62.80;;;;;;5149995;27;19951;-34
2023/08/02 00:09:52;;;;;;;;;;;24.80;63.10;;;;;;5147754;27;19922;-34
2023/08/02 00:12:18;;;;;;;;;;;24.80;63.40;;;;;;5154824;27;19915;-34
2023/08/02 00:14:43;;;;;;;;;;;24.90;63.60;;;;;;5148609;27;19930;-34
2023/08/02 00:17:09;;;;;;;;;;;24.90;63.80;;;;;;5161122;27;19974;-34
2023/08/02 00:19:36;;;;;;;;;;;24.80;64.00;;;;;;5150618;27;19964;-34
2023/08/02 00:22:02;;;;;;;;;;;24.90;64.40;;;;;;5149150;27;19944;-34
2023/08/02 00:24:27;;;;;;;;;;;24.90;64.50;;;;;;5151913;27;19938;-34
2023/08/02 00:26:53;;;;;;;;;;;24.90;64.80;;;;;;5159974;27;19921;-34
2023/08/02 00:29:19;;;;;;;;;;;25.00;65.00;;;;;;5147227;27;19912;-34
2023/08/02 00:31:45;;;;;;;;;;;25.00;65.30;;;;;;5155337;27;19975;-34
2023/08/02 00:34:11;;;;;;;;;;;25.00;65.30;;;;;;5159532;27;20202;-34
2023/08/02 00:36:37;;;;;;;;;;;25.00;65.40;;;;;;5154795;27;20399;-34
2023/08/02 00:39:03;;;;;;;;;;;25.00;65.50;;;;;;5159572;27;19920;-34
2023/08/02 00:41:28;;;;;;;;;;;25.00;65.60;;;;;;5144935;27;19915;-34
2023/08/02 00:43:54;;;;;;;;;;;25.00;65.60;;;;;;5147705;27;19947;-34
2023/08/02 00:46:20;;;;;;;;;;;25.00;65.90;;;;;;5150097;27;19922;-34
2023/08/02 00:48:46;;;;;;;;;;;25.00;66.00;;;;;;5157759;27;20549;-34
2023/08/02 00:51:15;;;;;;;;;;;25.00;66.00;;;;;;5151104;27;19922;-34
2023/08/02 00:53:42;;;;;;;;;;;25.10;66.10;;;;;;5145825;27;19912;-34
2023/08/02 00:56:08;;;;;;;;;;;25.10;66.10;;;;;;5153748;27;19919;-34
2023/08/02 00:58:33;;;;;;;;;;;25.10;66.10;;;;;;5148822;27;19915;-34
2023/08/02 01:01:06;;;;;;;;;;;25.10;66.10;;;;;;5152227;27;19926;-34
2023/08/02 01:03:33;;;;;;;;;;;25.10;66.20;;;;;;5152182;27;19919;-34
2023/08/02 01:05:59;;;;;;;;;;;25.10;66.30;;;;;;5150832;27;19916;-34
2023/08/02 01:08:33;;;;;;;;;;;25.10;65.70;;;;;;5150243;27;19911;-34
2023/08/02 01:11:20;;;;;;;;;;;25.20;64.60;;;;;;5147706;27;19922;-33
2023/08/02 01:13:47;;;;;;;;;;;25.20;63.50;;;;;;5153233;27;19990;-34
2023/08/02 01:16:13;;;;;;;;;;;25.10;62.70;;;;;;5153683;27;19922;-34
2023/08/02 01:18:39;;;;;;;;;;;25.10;62.10;;;;;;5158108;27;19911;-34
2023/08/02 01:21:05;;;;;;;;;;;25.10;61.70;;;;;;5156965;27;19919;-34
2023/08/02 01:23:30;;;;;;;;;;;25.10;61.20;;;;;;5166010;27;20398;-34
2023/08/02 01:25:56;;;;;;;;;;;25.10;60.90;;;;;;5161562;27;19946;-34
2023/08/02 01:28:22;;;;;;;;;;;25.00;60.50;;;;;;5158167;27;19919;-34
2023/08/02 01:30:48;;;;;;;;;;;25.00;60.20;;;;;;5154730;27;19916;-34
2023/08/02 01:33:14;;;;;;;;;;;25.00;60.00;;;;;;5150439;27;19946;-36
2023/08/02 01:35:40;;;;;;;;;;;24.90;59.70;;;;;;5152943;27;20368;-34
2023/08/02 01:38:06;;;;;;;;;;;24.90;59.60;;;;;;5154239;27;19922;-34
2023/08/02 01:40:32;;;;;;;;;;;24.90;59.40;;;;;;5155024;27;19923;-34
2023/08/02 01:42:58;;;;;;;;;;;24.90;59.20;;;;;;5155990;27;19915;-34
2023/08/02 01:45:44;;;;;;;;;;;24.80;58.90;;;;;;5162027;27;19922;-34
2023/08/02 01:48:09;;;;;;;;;;;24.80;58.90;;;;;;5081757;28;19916;-34
2023/08/02 01:50:35;;;;;;;;;;;24.80;58.70;;;;;;5082743;28;19956;-34
2023/08/02 01:53:01;;;;;;;;;;;24.70;58.50;;;;;;5081896;28;19927;-35
2023/08/02 01:55:27;;;;;;;;;;;24.70;58.40;;;;;;5080151;28;19932;-34
2023/08/02 01:57:53;;;;;;;;;;;24.70;58.30;;;;;;5080250;28;19942;-34
2023/08/02 02:00:19;;;;;;;;;;;24.60;58.20;;;;;;5081354;28;19999;-34
2023/08/02 02:02:45;;;;;;;;;;;24.60;58.20;;;;;;5081732;28;19923;-34
2023/08/02 02:05:11;;;;;;;;;;;24.60;58.30;;;;;;5080789;28;19917;-34
2023/08/02 02:07:36;;;;;;;;;;;24.50;58.20;;;;;;5082657;28;19912;-34
2023/08/02 02:10:02;;;;;;;;;;;24.50;58.20;;;;;;5082297;28;19920;-34
2023/08/02 02:12:28;;;;;;;;;;;24.50;58.30;;;;;;5081584;28;20003;-34
2023/08/02 02:14:54;;;;;;;;;;;24.40;58.10;;;;;;5075953;28;19932;-34
2023/08/02 02:17:21;;;;;;;;;;;24.40;58.00;;;;;;5081866;28;19917;-34
2023/08/02 02:19:46;;;;;;;;;;;24.30;58.00;;;;;;5081817;28;19916;-33
2023/08/02 02:22:12;;;;;;;;;;;24.30;58.00;;;;;;5081681;28;19916;-34
2023/08/02 02:24:38;;;;;;;;;;;24.30;58.10;;;;;;5096917;27;19979;-34
2023/08/02 02:27:04;;;;;;;;;;;24.30;58.10;;;;;;5152948;27;19915;-34
2023/08/02 02:29:31;;;;;;;;;;;24.20;58.00;;;;;;5162847;27;19915;-34
2023/08/02 02:31:56;;;;;;;;;;;24.20;58.20;;;;;;5152394;27;19915;-34
2023/08/02 02:34:22;;;;;;;;;;;24.10;58.10;;;;;;5154167;27;19919;-34
2023/08/02 02:36:49;;;;;;;;;;;24.10;58.20;;;;;;5146531;27;19915;-33
2023/08/02 02:39:15;;;;;;;;;;;24.10;58.00;;;;;;5147151;27;19915;-34
2023/08/02 02:41:41;;;;;;;;;;;24.00;57.80;;;;;;5151236;27;19926;-34
2023/08/02 02:44:07;;;;;;;;;;;24.00;57.90;;;;;;5163480;27;19964;-33
2023/08/02 02:46:33;;;;;;;;;;;24.00;58.90;;;;;;5146773;27;19922;-34
2023/08/02 02:48:59;;;;;;;;;;;24.00;59.70;;;;;;5162270;27;19915;-34
2023/08/02 02:51:25;;;;;;;;;;;23.90;59.40;;;;;;5155915;27;19911;-34
2023/08/02 02:53:51;;;;;;;;;;;23.90;59.50;;;;;;5153440;27;19937;-33
2023/08/02 02:56:17;;;;;;;;;;;23.90;59.60;;;;;;5157596;27;19911;-34
2023/08/02 02:58:43;;;;;;;;;;;23.80;60.10;;;;;;5152432;27;19922;-35
2023/08/02 03:01:09;;;;;;;;;;;23.80;60.00;;;;;;5145607;27;20468;-33
2023/08/02 03:03:35;;;;;;;;;;;23.80;59.60;;;;;;5152655;27;19923;-34
2023/08/02 03:06:01;;;;;;;;;;;23.80;60.00;;;;;;5153581;27;19915;-34
2023/08/02 03:08:27;;;;;;;;;;;23.80;60.20;;;;;;5154170;27;19915;-34
2023/08/02 03:10:53;;;;;;;;;;;23.80;60.20;;;;;;5154034;27;19975;-34
2023/08/02 03:13:20;;;;;;;;;;;23.80;60.50;;;;;;5145992;27;19919;-34
2023/08/02 03:15:46;;;;;;;;;;;23.80;60.60;;;;;;5157704;27;19923;-34
2023/08/02 03:18:12;;;;;;;;;;;23.70;60.70;;;;;;5154147;27;19921;-34
2023/08/02 03:20:39;;;;;;;;;;;23.70;60.90;;;;;;5151797;27;19919;-34
2023/08/02 03:23:05;;;;;;;;;;;23.70;61.10;;;;;;5149349;27;19950;-34
2023/08/02 03:25:30;;;;;;;;;;;23.70;61.40;;;;;;5162330;27;20295;-33
2023/08/02 03:27:56;;;;;;;;;;;23.70;61.60;;;;;;5149402;27;19916;-34
2023/08/02 03:30:22;;;;;;;;;;;23.70;61.80;;;;;;5163587;27;19926;-34
2023/08/02 03:32:48;;;;;;;;;;;23.70;62.10;;;;;;5154042;27;19974;-34
2023/08/02 03:35:14;;;;;;;;;;;23.70;62.40;;;;;;5153990;27;19942;-34
2023/08/02 03:37:40;;;;;;;;;;;23.70;62.60;;;;;;5152022;27;19919;-34
2023/08/02 03:40:06;;;;;;;;;;;23.80;62.90;;;;;;5160759;27;19922;-34
2023/08/02 03:42:32;;;;;;;;;;;23.80;63.10;;;;;;5154822;27;20419;-35
2023/08/02 03:44:58;;;;;;;;;;;23.80;63.20;;;;;;5147508;27;19919;-34
2023/08/02 03:47:24;;;;;;;;;;;23.80;63.40;;;;;;5150565;27;20625;-34
2023/08/02 03:49:49;;;;;;;;;;;23.80;63.50;;;;;;5160036;27;19911;-34
2023/08/02 03:52:15;;;;;;;;;;;23.80;63.60;;;;;;5156471;27;19919;-34
2023/08/02 03:54:41;;;;;;;;;;;23.80;63.60;;;;;;5155995;27;20001;-34
2023/08/02 03:57:07;;;;;;;;;;;23.80;63.80;;;;;;5152943;27;20351;-34
2023/08/02 03:59:33;;;;;;;;;;;23.80;63.80;;;;;;5156091;27;19915;-34
2023/08/02 04:01:59;;;;;;;;;;;23.80;63.90;;;;;;5159271;27;19922;-38
2023/08/02 04:04:25;;;;;;;;;;;23.80;64.00;;;;;;5152668;27;19986;-34
2023/08/02 04:06:51;;;;;;;;;;;23.80;64.00;;;;;;5154432;27;19951;-33
2023/08/02 04:09:17;;;;;;;;;;;23.80;64.10;;;;;;5163162;27;19911;-34
2023/08/02 04:11:43;;;;;;;;;;;23.80;64.30;;;;;;5159898;27;19923;-34
2023/08/02 04:14:08;;;;;;;;;;;23.80;64.60;;;;;;5148185;27;19918;-34
2023/08/02 04:16:34;;;;;;;;;;;23.80;64.80;;;;;;5157565;27;19915;-34
2023/08/02 04:19:00;;;;;;;;;;;23.80;65.10;;;;;;5158381;27;20367;-34
2023/08/02 04:21:26;;;;;;;;;;;23.90;65.30;;;;;;5155051;27;19954;-34
2023/08/02 04:23:52;;;;;;;;;;;23.90;65.30;;;;;;5151958;27;19915;-34
2023/08/02 04:26:18;;;;;;;;;;;23.90;65.50;;;;;;5155539;27;19942;-34
2023/08/02 04:28:45;;;;;;;;;;;23.90;65.70;;;;;;5151699;27;19962;-34
2023/08/02 04:31:10;;;;;;;;;;;23.90;65.70;;;;;;5158720;27;20644;-34
2023/08/02 04:33:36;;;;;;;;;;;23.90;65.70;;;;;;5150390;27;19919;-34
2023/08/02 04:36:02;;;;;;;;;;;23.90;65.50;;;;;;5147829;27;19927;-34
2023/08/02 04:38:28;;;;;;;;;;;23.90;65.50;;;;;;5155743;27;20514;-34
2023/08/02 04:40:54;;;;;;;;;;;23.90;65.40;;;;;;5146960;27;19915;-34
2023/08/02 04:43:20;;;;;;;;;;;23.90;65.30;;;;;;5144475;27;19915;-34
2023/08/02 04:45:46;;;;;;;;;;;23.90;65.40;;;;;;5145480;27;19962;-34
2023/08/02 04:48:12;;;;;;;;;;;23.90;65.40;;;;;;5152790;27;19927;-33
2023/08/02 04:50:38;;;;;;;;;;;24.00;65.60;;;;;;5155147;27;19978;-34
2023/08/02 04:53:03;;;;;;;;;;;24.00;65.80;;;;;;5156120;27;19919;-34
2023/08/02 04:55:29;;;;;;;;;;;24.00;65.90;;;;;;5150323;27;20003;-34
2023/08/02 04:57:55;;;;;;;;;;;24.00;66.30;;;;;;5153218;27;19911;-34
2023/08/02 05:00:21;;;;;;;;;;;24.00;66.20;;;;;;5151890;27;19911;-34
2023/08/02 05:02:47;;;;;;;;;;;24.00;66.20;;;;;;5156874;27;19958;-34
2023/08/02 05:05:13;;;;;;;;;;;24.00;66.30;;;;;;5151736;27;19975;-34
2023/08/02 05:07:39;;;;;;;;;;;24.00;66.40;;;;;;5152080;27;19979;-34
2023/08/02 05:10:05;;;;;;;;;;;24.00;66.40;;;;;;5153684;27;20419;-34
2023/08/02 05:12:34;;;;;;;;;;;24.00;66.30;;;;;;5160571;27;19907;-34
2023/08/02 05:15:00;;;;;;;;;;;24.00;66.20;;;;;;5152273;27;19926;-34
2023/08/02 05:17:27;;;;;;;;;;;24.00;66.10;;;;;;5151683;27;19916;-34
2023/08/02 05:19:53;;;;;;;;;;;24.00;66.00;;;;;;5146502;27;19915;-33
2023/08/02 05:22:19;;;;;;;;;;;24.00;66.00;;;;;;5145887;27;19919;-35
2023/08/02 05:24:45;;;;;;;;;;;24.00;66.00;;;;;;5146222;27;19957;-33
2023/08/02 05:27:11;;;;;;;;;;;24.00;66.00;;;;;;5157751;27;19942;-34
2023/08/02 05:29:36;;;;;;;;;;;24.00;66.10;;;;;;5152747;27;19915;-34
2023/08/02 05:32:02;;;;;;;;;;;24.00;66.00;;;;;;5159005;27;19919;-34
2023/08/02 05:34:28;;;;;;;;;;;24.00;66.00;;;;;;5155455;27;20553;-34
2023/08/02 05:36:54;;;;;;;;;;;24.00;66.00;;;;;;5159027;27;19911;-34
2023/08/02 05:39:20;;;;;;;;;;;24.00;66.00;;;;;;5145998;27;19911;-34
2023/08/02 05:41:46;;;;;;;;;;;24.00;66.00;;;;;;5150184;27;19922;-33
2023/08/02 05:44:12;;;;;;;;;;;24.00;66.00;;;;;;5154275;27;19919;-34
2023/08/02 05:46:37;;;;;;;;;;;24.00;66.00;;;;;;5155695;27;20081;-34
2023/08/02 05:49:03;;;;;;;;;;;24.00;66.00;;;;;;5147353;27;19919;-33
2023/08/02 05:51:29;;;;;;;;;;;24.00;66.10;;;;;;5145970;27;19915;-33
2023/08/02 05:53:55;;;;;;;;;;;24.00;66.10;;;;;;5144174;27;19934;-34
2023/08/02 05:56:21;;;;;;;;;;;24.10;66.10;;;;;;5150680;27;20437;-34
2023/08/02 05:58:47;;;;;;;;;;;24.10;66.10;;;;;;5152607;27;19922;-34
2023/08/02 06:01:13;;;;;;;;;;;24.10;66.20;;;;;;5152632;27;19916;-33
2023/08/02 06:03:39;;;;;;;;;;;24.10;66.20;;;;;;5154189;27;19936;-34
2023/08/02 06:06:05;;;;;;;;;;;24.10;67.00;;;;;;5150447;27;19915;-34
2023/08/02 06:08:31;;;;;;;;;;;24.10;66.30;;;;;;5164992;27;19965;-34
2023/08/02 06:10:57;;;;;;;;;;;24.10;66.30;;;;;;5149906;27;20347;-34
2023/08/02 06:13:22;;;;;;;;;;;24.10;66.40;;;;;;5154579;27;19915;-34
2023/08/02 06:15:49;;;;;;;;;;;24.10;66.40;;;;;;5149118;27;19963;-34
2023/08/02 06:18:15;;;;;;;;;;;24.10;66.40;;;;;;5147521;27;19922;-34
2023/08/02 06:20:40;;;;;;;;;;;24.10;66.40;;;;;;5148348;27;19911;-34
2023/08/02 06:23:06;;;;;;;;;;;24.10;66.50;;;;;;5152742;27;19937;-34
2023/08/02 06:25:32;;;;;;;;;;;24.10;66.50;;;;;;5152013;27;19994;-34
2023/08/02 06:27:58;;;;;;;;;;;24.10;66.60;;;;;;5147880;27;19916;-34
2023/08/02 06:30:24;;;;;;;;;;;24.10;66.70;;;;;;5151835;27;19939;-34
2023/08/02 06:32:50;;;;;;;;;;;24.10;66.70;;;;;;5148338;27;19911;-34
2023/08/02 06:35:16;;;;;;;;;;;24.10;66.70;;;;;;5154483;27;20449;-34
2023/08/02 06:37:41;;;;;;;;;;;24.10;66.80;;;;;;5164404;27;19969;-34
2023/08/02 06:40:08;;;;;;;;;;;24.10;66.80;;;;;;5148862;27;19987;-34
2023/08/02 06:42:33;;;;;;;;;;;24.10;66.90;;;;;;5152698;27;20427;-33
2023/08/02 06:45:00;;;;;;;;;;;24.10;67.00;;;;;;5160236;27;19945;-34
2023/08/02 06:47:25;;;;;;;;;;;24.10;67.00;;;;;;5155755;27;19911;-34
2023/08/02 06:49:51;;;;;;;;;;;24.10;67.00;;;;;;5149312;27;19984;-33
2023/08/02 06:52:17;;;;;;;;;;;24.10;67.10;;;;;;5157509;27;19915;-34
2023/08/02 06:54:43;;;;;;;;;;;24.10;67.10;;;;;;5149233;27;20005;-34
2023/08/02 06:57:09;;;;;;;;;;;24.10;67.20;;;;;;5153729;27;19915;-34
2023/08/02 06:59:35;;;;;;;;;;;24.10;67.30;;;;;;5153825;27;19915;-34
2023/08/02 07:02:01;;;;;;;;;;;24.10;67.40;;;;;;5155077;27;19916;-34
2023/08/02 07:04:26;;;;;;;;;;;24.10;67.60;;;;;;5162617;27;19922;-34
2023/08/02 07:06:52;;;;;;;;;;;24.10;67.60;;;;;;5162088;27;19941;-35
2023/08/02 07:09:18;;;;;;;;;;;24.10;67.60;;;;;;5156950;27;19922;-34
2023/08/02 07:11:44;;;;;;;;;;;24.10;67.60;;;;;;5164009;27;19945;-34
2023/08/02 07:14:10;;;;;;;;;;;24.10;67.60;;;;;;5154427;27;20415;-34
2023/08/02 07:16:36;;;;;;;;;;;24.10;67.60;;;;;;5158785;27;19914;-33
2023/08/02 07:19:02;;;;;;;;;;;24.10;67.60;;;;;;5154733;27;19915;-33
2023/08/02 07:21:29;;;;;;;;;;;24.10;67.60;;;;;;5151052;27;19915;-34
2023/08/02 07:23:55;;;;;;;;;;;24.10;67.60;;;;;;5161644;27;19911;-34
2023/08/02 07:26:22;;;;;;;;;;;24.10;67.60;;;;;;5162795;27;19984;-34
2023/08/02 07:28:48;;;;;;;;;;;24.10;67.60;;;;;;5156706;27;19961;-34
2023/08/02 07:31:14;;;;;;;;;;;24.10;68.40;;;;;;5156474;27;20419;-34
2023/08/02 07:33:40;;;;;;;;;;;24.10;67.70;;;;;;5145763;27;19962;-34
2023/08/02 07:36:12;;;;;;;;;;;24.10;67.70;;;;;;5146563;27;19931;-34
2023/08/02 07:38:38;;;;;;;;;;;24.10;68.60;;;;;;5145996;27;19919;-33
2023/08/02 07:41:06;;;;;;;;;;;24.10;67.80;;;;;;5154217;27;19919;-34
2023/08/02 07:43:33;;;;;;;;;;;24.10;67.80;;;;;;5153126;27;19919;-33
2023/08/02 07:45:59;;;;;;;;;;;24.10;67.90;;;;;;5153540;27;19922;-34
2023/08/02 07:48:25;;;;;;;;;;;24.10;68.00;;;;;;5151163;27;19911;-34
2023/08/02 07:50:51;;;;;;;;;;;24.10;68.00;;;;;;5153025;27;19915;-34
2023/08/02 07:53:17;;;;;;;;;;;24.10;68.10;;;;;;5157869;27;20383;-33
2023/08/02 07:55:43;;;;;;;;;;;24.10;68.10;;;;;;5151342;27;19919;-34
2023/08/02 07:58:08;;;;;;;;;;;24.10;68.20;;;;;;5153257;27;19958;-34
2023/08/02 08:00:34;;;;;;;;;;;24.10;68.20;;;;;;5149873;27;19911;-34
2023/08/02 08:03:03;;;;;;;;;;;24.10;68.30;;;;;;5152843;27;19911;-34
2023/08/02 08:05:29;;;;;;;;;;;24.10;68.30;;;;;;5152015;27;19915;-34
2023/08/02 08:07:55;;;;;;;;;;;24.10;68.30;;;;;;5147637;27;19919;-34
2023/08/02 08:10:21;;;;;;;;;;;24.10;68.30;;;;;;5145834;27;19915;-33
2023/08/02 08:12:47;;;;;;;;;;;24.00;68.20;;;;;;5152049;27;19921;-34
2023/08/02 08:15:13;;;;;;;;;;;24.10;68.40;;;;;;5158125;27;19924;-35
2023/08/02 08:17:39;;;;;;;;;;;24.10;68.40;;;;;;5145033;27;19915;-33
2023/08/02 08:20:05;;;;;;;;;;;24.10;68.40;;;;;;5152682;27;19912;-34
2023/08/02 08:22:31;;;;;;;;;;;24.00;68.40;;;;;;5149584;27;19940;-34
2023/08/02 08:24:57;;;;;;;;;;;24.10;68.50;;;;;;5153163;27;19930;-34
2023/08/02 08:27:23;;;;;;;;;;;24.00;68.50;;;;;;5160382;27;19915;-35
2023/08/02 08:29:49;;;;;;;;;;;24.00;68.50;;;;;;5154588;27;19919;-33
2023/08/02 08:32:16;;;;;;;;;;;24.00;68.50;;;;;;5144693;27;19919;-34
2023/08/02 08:34:42;;;;;;;;;;;24.00;68.50;;;;;;5143862;27;19927;-34
2023/08/02 08:37:08;;;;;;;;;;;24.00;68.60;;;;;;5149980;27;19959;-34
2023/08/02 08:39:34;;;;;;;;;;;24.00;68.70;;;;;;5147528;27;19912;-34
2023/08/02 08:42:05;;;;;;;;;;;24.00;68.70;;;;;;5145347;27;19922;-35
2023/08/02 08:44:31;;;;;;;;;;;24.00;68.70;;;;;;5146983;27;19919;-34
2023/08/02 08:47:00;;;;;;;;;;;24.00;68.80;;;;;;5152099;27;19915;-33
2023/08/02 08:49:26;;;;;;;;;;;24.00;69.60;;;;;;5144510;27;19923;-34
2023/08/02 08:51:52;;;;;;;;;;;24.00;68.80;;;;;;5147972;27;19947;-34
2023/08/02 08:54:19;;;;;;;;;;;24.00;68.80;;;;;;5144110;27;19924;-34
2023/08/02 08:56:45;;;;;;;;;;;24.00;68.80;;;;;;5152300;27;19915;-33
2023/08/02 08:59:10;;;;;;;;;;;24.00;68.80;;;;;;5154905;27;19992;-34
2023/08/02 09:01:36;;;;;;;;;;;24.00;68.80;;;;;;5151553;27;19919;-34
2023/08/02 09:04:03;;;;;;;;;;;24.00;68.80;;;;;;5144465;27;19927;-34
2023/08/02 09:06:28;;;;;;;;;;;24.00;68.80;;;;;;5144260;27;19915;-34
2023/08/02 09:08:54;;;;;;;;;;;24.00;68.80;;;;;;5154301;27;19911;-34
2023/08/02 09:11:20;;;;;;;;;;;24.00;68.90;;;;;;5156407;27;19915;-34
2023/08/02 09:13:46;;;;;;;;;;;24.00;68.90;;;;;;5154304;27;19975;-34
2023/08/02 09:16:15;;;;;;;;;;;24.00;68.90;;;;;;5146236;27;19930;-34
2023/08/02 09:18:42;;;;;;;;;;;24.00;68.90;;;;;;5152258;27;19979;-34
2023/08/02 09:21:08;;;;;;;;;;;24.00;69.00;;;;;;5154642;27;19968;-34
2023/08/02 09:23:34;;;;;;;;;;;24.00;69.00;;;;;;5148080;27;19918;-34
2023/08/02 09:26:09;;;;;;;;;;;24.00;69.10;;;;;;5151253;27;19962;-34
2023/08/02 09:28:34;;;;;;;;;;;24.00;69.10;;;;;;5158387;27;19911;-34
2023/08/02 09:31:13;;;;;;;;;;;24.00;69.20;;;;;;5150304;27;19990;-34
2023/08/02 09:33:49;;;;;;;;;;;24.00;69.20;;;;;;5157479;27;19923;-33
2023/08/02 09:36:28;;;;;;;;;;;24.00;69.30;;;;;;5147032;27;19927;-33
2023/08/02 09:39:15;;;;;;;;;;;24.00;69.30;;;;;;5149386;27;19935;-34
2023/08/02 09:41:41;;;;;;;;;;;24.00;69.30;;;;;;5154249;27;19916;-34
2023/08/02 09:44:07;;;;;;;;;;;24.00;70.10;;;;;;5161545;27;19912;-34
2023/08/02 09:46:36;;;;;;;;;;;24.00;69.40;;;;;;5162781;27;19919;-34
2023/08/02 09:49:15;;;;;;;;;;;24.00;69.40;;;;;;5161392;27;19994;-33
2023/08/02 09:51:42;;;;;;;;;;;24.00;69.40;;;;;;5161603;27;19915;-33
2023/08/02 09:54:08;;;;;;;;;;;24.00;69.40;;;;;;5150048;27;19922;-34
2023/08/02 09:56:37;;;;;;;;;;;24.00;69.30;;;;;;5159085;27;19915;-34
2023/08/02 09:59:03;;;;;;;;;;;24.00;69.40;;;;;;5152745;27;19915;-34
2023/08/02 10:01:29;;;;;;;;;;;24.00;69.50;;;;;;5153573;27;19915;-34
2023/08/02 10:03:58;;;;;;;;;;;24.00;69.50;;;;;;5157816;27;19947;-34
2023/08/02 10:06:32;;;;;;;;;;;24.00;69.60;;;;;;5165201;27;19936;-34
2023/08/02 10:08:59;;;;;;;;;;;24.00;69.60;;;;;;5151019;27;19946;-34
2023/08/02 10:11:25;;;;;;;;;;;24.00;69.60;;;;;;5146555;27;19938;-34
2023/08/02 10:13:51;;;;;;;;;;;24.00;69.60;;;;;;5157901;27;19937;-34
2023/08/02 10:16:18;;;;;;;;;;;24.00;69.70;;;;;;5147615;27;19990;-34
2023/08/02 10:18:45;;;;;;;;;;;24.00;69.80;;;;;;5156897;27;19929;-34
2023/08/02 10:21:11;;;;;;;;;;;24.00;69.80;;;;;;5160142;27;19918;-34
2023/08/02 10:23:36;;;;;;;;;;;24.00;69.90;;;;;;5154614;27;19911;-34
2023/08/02 10:26:02;;;;;;;;;;;24.00;69.90;;;;;;5151469;27;20007;-34
2023/08/02 10:28:28;;;;;;;;;;;24.00;69.90;;;;;;5165814;27;19922;-34
2023/08/02 10:30:54;;;;;;;;;;;24.00;70.00;;;;;;5152061;27;19922;-34
2023/08/02 10:33:20;;;;;;;;;;;24.00;70.00;;;;;;5147042;27;19919;-34
2023/08/02 10:35:56;;;;;;;;;;;24.00;69.90;;;;;;5146250;27;20632;-34
2023/08/02 10:38:26;;;;;;;;;;;24.00;69.90;;;;;;5146576;27;19923;-34
2023/08/02 10:41:02;;;;;;;;;;;24.00;70.00;;;;;;5162188;27;19919;-35
2023/08/02 10:43:28;;;;;;;;;;;24.00;70.00;;;;;;5154358;27;19916;-34
2023/08/02 10:46:12;;;;;;;;;;;24.00;70.00;;;;;;5150808;27;19923;-34
2023/08/02 10:48:38;;;;;;;;;;;24.00;70.10;;;;;;5157092;27;19922;-34
2023/08/02 10:51:04;;;;;;;;;;;24.00;70.10;;;;;;5156558;27;19919;-34
2023/08/02 10:53:30;;;;;;;;;;;24.00;70.10;;;;;;5158020;27;19969;-34
2023/08/02 10:56:02;;;;;;;;;;;24.00;70.10;;;;;;5153591;27;19923;-33
2023/08/02 10:58:33;;;;;;;;;;;24.00;70.20;;;;;;5150606;27;20392;-34
2023/08/02 11:01:07;;;;;;;;;;;24.00;70.20;;;;;;5160281;27;19938;-34
2023/08/02 11:03:35;;;;;;;;;;;24.00;70.20;;;;;;5153543;27;20244;-34
2023/08/02 11:06:01;;;;;;;;;;;24.00;70.30;;;;;;5158553;27;19911;-34
2023/08/02 11:08:27;;;;;;;;;;;24.00;70.30;;;;;;5152706;27;19915;-34
2023/08/02 11:10:54;;;;;;;;;;;24.00;70.40;;;;;;5157136;27;19919;-34
2023/08/02 11:13:21;;;;;;;;;;;24.00;70.50;;;;;;5152043;27;19918;-34
2023/08/02 11:15:47;;;;;;;;;;;24.00;70.40;;;;;;5148799;27;19987;-34
2023/08/02 11:18:12;;;;;;;;;;;24.00;70.50;;;;;;5159594;27;19919;-33
2023/08/02 11:20:38;;;;;;;;;;;24.00;70.60;;;;;;5154767;27;19915;-34
2023/08/02 11:23:32;;;;;;;;;;;24.00;70.60;;;;;;5147135;27;19930;-34
2023/08/02 11:26:08;;;;;;;;;;;24.00;70.60;;;;;;5150786;27;19937;-34
2023/08/02 11:28:52;;;;;;;;;;;24.00;70.60;;;;;;5157059;27;19912;-34
2023/08/02 11:31:18;;;;;;;;;;;24.00;70.60;;;;;;5159245;27;19996;-33
2023/08/02 11:33:44;;;;;;;;;;;24.00;70.60;;;;;;5153162;27;19923;-34
2023/08/02 11:36:10;;;;;;;;;;;24.00;71.40;;;;;;5156073;27;19999;-34
2023/08/02 11:38:36;;;;;;;;;;;24.00;70.70;;;;;;5157317;27;20343;-34
2023/08/02 11:41:02;;;;;;;;;;;24.00;70.60;;;;;;5160935;27;19951;-34
2023/08/02 11:43:37;;;;;;;;;;;24.00;70.60;;;;;;5155496;27;19915;-34
2023/08/02 11:46:13;;;;;;;;;;;24.00;70.60;;;;;;5152064;27;19957;-34
2023/08/02 11:48:39;;;;;;;;;;;24.00;70.70;;;;;;5154942;27;19915;-34
2023/08/02 11:51:05;;;;;;;;;;;24.00;70.80;;;;;;5147301;27;19919;-34
2023/08/02 11:53:31;;;;;;;;;;;24.00;70.90;;;;;;5153504;27;19938;-34
2023/08/02 11:55:57;;;;;;;;;;;24.00;70.80;;;;;;5152291;27;19923;-34
2023/08/02 11:58:22;;;;;;;;;;;24.00;70.90;;;;;;5154545;27;19918;-34
2023/08/02 12:00:48;;;;;;;;;;;24.00;70.90;;;;;;5147841;27;20423;-34
2023/08/02 12:03:14;;;;;;;;;;;24.00;70.90;;;;;;5152091;27;19915;-34
2023/08/02 12:05:41;;;;;;;;;;;23.90;70.80;;;;;;5155818;27;19915;-34
2023/08/02 12:08:10;;;;;;;;;;;24.00;71.00;;;;;;5152568;27;19911;-34
2023/08/02 12:10:36;;;;;;;;;;;24.00;71.00;;;;;;5155006;27;19959;-34
2023/08/02 12:13:09;;;;;;;;;;;24.00;71.00;;;;;;5160094;27;19916;-34
2023/08/02 12:15:35;;;;;;;;;;;24.00;70.90;;;;;;5156563;27;20009;-34
2023/08/02 12:18:02;;;;;;;;;;;24.00;71.00;;;;;;5144017;27;19912;-34
2023/08/02 12:20:29;;;;;;;;;;;24.00;70.90;;;;;;5151541;27;19922;-34
2023/08/02 12:22:55;;;;;;;;;;;24.00;70.90;;;;;;5144050;27;19941;-34
2023/08/02 12:25:21;;;;;;;;;;;23.90;70.90;;;;;;5161984;27;19915;-34
2023/08/02 12:28:05;;;;;;;;;;;24.00;71.00;;;;;;5161420;27;19915;-34
2023/08/02 12:30:31;;;;;;;;;;;24.00;71.00;;;;;;5144265;27;19989;-34
2023/08/02 12:32:58;;;;;;;;;;;24.00;71.00;;;;;;5149244;27;20353;-34
2023/08/02 12:35:24;;;;;;;;;;;24.00;71.10;;;;;;5144544;27;19923;-34
2023/08/02 12:37:53;;;;;;;;;;;24.00;71.20;;;;;;5143309;27;19919;-34
2023/08/02 12:40:19;;;;;;;;;;;24.00;71.20;;;;;;5156696;27;20340;-34
2023/08/02 12:42:44;;;;;;;;;;;24.00;71.20;;;;;;5148227;27;19916;-34
2023/08/02 12:45:10;;;;;;;;;;;24.00;71.20;;;;;;5152369;27;19912;-34
2023/08/02 12:47:36;;;;;;;;;;;24.00;72.00;;;;;;5154985;27;19919;-34
2023/08/02 12:50:02;;;;;;;;;;;24.00;71.30;;;;;;5145350;27;19926;-34
2023/08/02 12:52:28;;;;;;;;;;;24.00;71.30;;;;;;5152878;27;19946;-34
2023/08/02 12:54:55;;;;;;;;;;;24.00;71.20;;;;;;5159655;27;19919;-33
2023/08/02 12:57:21;;;;;;;;;;;24.00;71.20;;;;;;5151625;27;19923;-34
2023/08/02 12:59:47;;;;;;;;;;;24.00;71.20;;;;;;5151387;27;20161;-34
2023/08/02 13:02:13;;;;;;;;;;;24.00;71.30;;;;;;5152575;27;19915;-34
2023/08/02 13:04:39;;;;;;;;;;;24.00;71.20;;;;;;5159331;27;19922;-34
2023/08/02 13:07:05;;;;;;;;;;;24.00;71.30;;;;;;5152889;27;19955;-33
2023/08/02 13:09:33;;;;;;;;;;;24.00;71.40;;;;;;5158238;27;19958;-34
2023/08/02 13:11:59;;;;;;;;;;;24.00;71.40;;;;;;5149218;27;19922;-34
2023/08/02 13:14:25;;;;;;;;;;;24.00;71.50;;;;;;5161532;27;19915;-34
2023/08/02 13:16:51;;;;;;;;;;;24.00;71.50;;;;;;5148844;27;19953;-34
2023/08/02 13:19:17;;;;;;;;;;;24.00;71.50;;;;;;5157045;27;19915;-35
2023/08/02 13:21:43;;;;;;;;;;;24.00;71.70;;;;;;5164978;27;19947;-34
2023/08/02 13:24:09;;;;;;;;;;;24.00;71.70;;;;;;5147564;27;19922;-34
2023/08/02 13:26:35;;;;;;;;;;;24.00;71.80;;;;;;5148893;27;19942;-34
2023/08/02 13:29:01;;;;;;;;;;;24.00;71.90;;;;;;5149556;27;19915;-34
2023/08/02 13:31:27;;;;;;;;;;;24.00;71.90;;;;;;5155631;27;19915;-34
2023/08/02 13:33:53;;;;;;;;;;;24.10;72.20;;;;;;5159220;27;19923;-34
2023/08/02 13:36:19;;;;;;;;;;;24.10;73.00;;;;;;5157475;27;19983;-33
2023/08/02 13:38:44;;;;;;;;;;;24.10;72.20;;;;;;5158393;27;20677;-33
2023/08/02 13:41:10;;;;;;;;;;;24.10;72.30;;;;;;5158588;27;20006;-33
2023/08/02 13:43:36;;;;;;;;;;;24.10;72.50;;;;;;5155990;27;19918;-34
2023/08/02 13:46:02;;;;;;;;;;;24.10;72.60;;;;;;5157139;27;20013;-34
2023/08/02 13:48:28;;;;;;;;;;;24.10;72.50;;;;;;5149596;27;20306;-34
2023/08/02 13:50:54;;;;;;;;;;;24.10;72.70;;;;;;5149164;27;19945;-35
2023/08/02 13:53:20;;;;;;;;;;;24.10;72.80;;;;;;5154749;27;19977;-34
2023/08/02 13:55:46;;;;;;;;;;;24.20;72.90;;;;;;5155692;27;19919;-35
2023/08/02 13:58:11;;;;;;;;;;;24.20;73.00;;;;;;5155828;27;20350;-34
2023/08/02 14:00:37;;;;;;;;;;;24.20;73.10;;;;;;5161545;27;20304;-34
2023/08/02 14:03:03;;;;;;;;;;;24.20;73.10;;;;;;5148152;27;19968;-34
2023/08/02 14:05:49;;;;;;;;;;;24.20;73.20;;;;;;5100883;28;20329;-34
2023/08/02 14:08:15;;;;;;;;;;;24.20;73.20;;;;;;5109835;28;19916;-34
2023/08/02 14:10:43;;;;;;;;;;;24.30;73.20;;;;;;5103087;28;19916;-34
2023/08/02 14:13:09;;;;;;;;;;;24.30;73.30;;;;;;5102600;28;19989;-34